createdAt,value
2023-03-12T00:00:11.497Z,15.40
2023-03-12T00:02:38.892Z,15.40
2023-03-12T00:05:07.035Z,15.40
2023-03-12T00:07:36.719Z,15.30
2023-03-12T00:10:05.793Z,15.30
2023-03-12T00:12:33.173Z,15.20
2023-03-12T00:15:01.671Z,15.20
2023-03-12T00:17:30.406Z,15.20
2023-03-12T00:19:57.852Z,15.10
2023-03-12T00:22:25.999Z,15.10
2023-03-12T00:24:57.127Z,15.20
2023-03-12T00:27:25.979Z,15.20
2023-03-12T00:29:53.860Z,15.20
2023-03-12T00:32:21.676Z,15.20
2023-03-12T00:34:54.128Z,15.20
2023-03-12T00:37:22.297Z,15.20
2023-03-12T00:39:49.578Z,15.20
2023-03-12T00:42:17.134Z,15.10
2023-03-12T00:44:44.603Z,15.20
2023-03-12T00:47:13.848Z,15.10
2023-03-12T00:49:41.378Z,15.10
2023-03-12T00:52:08.769Z,15.10
2023-03-12T00:54:36.073Z,15.00
2023-03-12T00:57:03.645Z,15.00
2023-03-12T00:59:31.323Z,14.90
2023-03-12T01:01:58.837Z,14.80
2023-03-12T01:04:26.148Z,14.80
2023-03-12T01:06:55.103Z,14.70
2023-03-12T01:09:22.459Z,14.60
2023-03-12T01:11:52.052Z,14.60
2023-03-12T01:14:19.443Z,14.60
2023-03-12T01:16:48.843Z,14.50
2023-03-12T01:19:16.781Z,14.50
2023-03-12T01:21:44.096Z,14.40
2023-03-12T01:24:11.477Z,14.40
2023-03-12T01:26:38.754Z,14.30
2023-03-12T01:29:06.084Z,14.30
2023-03-12T01:31:33.680Z,14.20
2023-03-12T01:34:01.014Z,14.20
2023-03-12T01:36:30.900Z,14.30
2023-03-12T01:38:59.839Z,14.50
2023-03-12T01:41:32.619Z,14.80
2023-03-12T01:44:03.825Z,15.10
2023-03-12T01:46:46.189Z,15.30
2023-03-12T01:49:32.145Z,15.40
2023-03-12T01:52:06.037Z,15.30
2023-03-12T01:55:00.479Z,15.10
2023-03-12T01:57:35.800Z,14.90
2023-03-12T02:00:14.361Z,14.70
2023-03-12T02:02:45.011Z,14.60
2023-03-12T02:05:45.271Z,14.50
2023-03-12T02:08:15.168Z,14.40
2023-03-12T02:10:42.658Z,14.50
2023-03-12T02:13:11.434Z,14.60
2023-03-12T02:15:43.620Z,14.60
2023-03-12T02:18:16.351Z,14.70
2023-03-12T02:20:55.501Z,14.70
2023-03-12T02:23:38.771Z,14.80
2023-03-12T02:26:07.446Z,14.90
2023-03-12T02:28:43.154Z,15.00
2023-03-12T02:31:16.008Z,15.10
2023-03-12T02:33:43.637Z,15.10
2023-03-12T02:36:11.246Z,15.10
2023-03-12T02:38:46.842Z,15.10
2023-03-12T02:41:27.568Z,15.10
2023-03-12T02:44:03.835Z,15.10
2023-03-12T02:46:42.883Z,15.10
2023-03-12T02:49:12.768Z,15.10
2023-03-12T02:51:41.794Z,15.10
2023-03-12T02:54:11.394Z,15.10
2023-03-12T02:56:39.932Z,15.20
2023-03-12T02:59:08.178Z,15.20
2023-03-12T03:01:38.879Z,15.10
2023-03-12T03:04:07.669Z,15.20
2023-03-12T03:06:37.525Z,15.10
2023-03-12T03:09:05.640Z,15.10
2023-03-12T03:11:33.029Z,15.10
2023-03-12T03:14:04.513Z,15.10
2023-03-12T03:16:32.471Z,15.00
2023-03-12T03:18:59.890Z,15.00
2023-03-12T03:21:27.333Z,15.00
2023-03-12T03:23:54.619Z,15.10
2023-03-12T03:26:24.236Z,15.10
2023-03-12T03:28:52.630Z,15.10
2023-03-12T03:31:20.399Z,15.20
2023-03-12T03:33:48.673Z,15.20
2023-03-12T03:36:16.665Z,15.20
2023-03-12T03:38:52.825Z,15.20
2023-03-12T03:41:21.152Z,15.10
2023-03-12T03:43:49.263Z,15.10
2023-03-12T03:46:19.527Z,15.00
2023-03-12T03:48:52.197Z,15.00
2023-03-12T03:51:20.861Z,15.00
2023-03-12T03:53:51.737Z,15.00
2023-03-12T03:56:19.964Z,15.10
2023-03-12T03:58:50.250Z,15.10
2023-03-12T04:01:20.180Z,15.10
2023-03-12T04:03:48.442Z,15.20
2023-03-12T04:06:15.757Z,15.20
2023-03-12T04:08:43.360Z,15.20
2023-03-12T04:11:19.861Z,15.20
2023-03-12T04:13:48.080Z,15.20
2023-03-12T04:16:18.828Z,15.10
2023-03-12T04:18:47.361Z,15.20
2023-03-12T04:21:17.529Z,15.10
2023-03-12T04:23:45.784Z,15.10
2023-03-12T04:26:14.478Z,15.10
2023-03-12T04:28:41.793Z,15.00
2023-03-12T04:31:11.776Z,15.00
2023-03-12T04:33:45.110Z,15.00
2023-03-12T04:36:13.757Z,14.90
2023-03-12T04:38:44.189Z,14.90
2023-03-12T04:41:15.787Z,15.00
2023-03-12T04:43:50.907Z,14.90
2023-03-12T04:46:19.626Z,15.00
2023-03-12T04:48:47.199Z,15.00
2023-03-12T04:51:15.895Z,15.10
2023-03-12T04:53:43.760Z,15.20
2023-03-12T04:56:13.532Z,15.20
2023-03-12T04:58:42.071Z,15.20
2023-03-12T05:01:21.947Z,15.20
2023-03-12T05:03:49.558Z,15.20
2023-03-12T05:06:17.509Z,15.10
2023-03-12T05:08:45.092Z,15.00
2023-03-12T05:11:13.142Z,15.10
2023-03-12T05:13:40.473Z,15.20
2023-03-12T05:16:08.294Z,15.20
2023-03-12T05:18:35.921Z,15.20
2023-03-12T05:21:15.542Z,15.30
2023-03-12T05:23:43.321Z,15.30
2023-03-12T05:26:19.112Z,15.40
2023-03-12T05:28:47.798Z,15.40
2023-03-12T05:31:17.549Z,15.40
2023-03-12T05:33:46.136Z,15.10
2023-03-12T05:36:14.707Z,14.80
2023-03-12T05:38:44.338Z,14.60
2023-03-12T05:41:25.914Z,14.50
2023-03-12T05:43:58.187Z,14.50
2023-03-12T05:46:28.865Z,14.60
2023-03-12T05:48:56.567Z,14.90
2023-03-12T05:51:28.655Z,15.00
2023-03-12T05:53:56.124Z,15.00
2023-03-12T05:56:25.383Z,15.00
2023-03-12T05:58:52.826Z,14.90
2023-03-12T06:01:25.010Z,14.90
2023-03-12T06:03:54.470Z,15.00
2023-03-12T06:06:23.356Z,15.20
2023-03-12T06:08:52.133Z,15.50
2023-03-12T06:11:19.452Z,15.70
2023-03-12T06:13:46.879Z,15.90
2023-03-12T06:16:23.205Z,16.10
2023-03-12T06:18:54.183Z,16.30
2023-03-12T06:21:24.423Z,16.50
2023-03-12T06:23:52.833Z,16.60
2023-03-12T06:26:46.168Z,16.70
2023-03-12T06:29:13.661Z,16.90
2023-03-12T06:31:42.423Z,17.00
2023-03-12T06:34:13.765Z,17.10
2023-03-12T06:36:41.117Z,17.00
2023-03-12T06:39:09.858Z,16.90
2023-03-12T06:41:37.292Z,16.80
2023-03-12T06:44:06.655Z,16.60
2023-03-12T06:46:35.904Z,16.50
2023-03-12T06:49:03.325Z,16.40
2023-03-12T06:51:30.718Z,16.40
2023-03-12T06:53:58.026Z,16.40
2023-03-12T06:56:25.464Z,16.30
2023-03-12T06:58:52.960Z,16.30
2023-03-12T07:01:20.499Z,16.30
2023-03-12T07:03:47.894Z,16.30
2023-03-12T07:06:22.816Z,16.30
2023-03-12T07:08:50.743Z,16.40
2023-03-12T07:11:18.534Z,16.50
2023-03-12T07:13:45.996Z,16.60
2023-03-12T07:16:13.556Z,16.70
2023-03-12T07:18:41.090Z,16.80
2023-03-12T07:21:08.438Z,16.90
2023-03-12T07:23:35.837Z,17.00
2023-03-12T07:26:05.855Z,17.10
2023-03-12T07:28:33.351Z,17.20
2023-03-12T07:31:04.755Z,17.40
2023-03-12T07:33:32.733Z,17.50
2023-03-12T07:36:00.439Z,17.70
2023-03-12T07:38:28.294Z,17.90
2023-03-12T07:40:57.761Z,18.00
2023-03-12T07:43:25.558Z,18.20
2023-03-12T07:45:55.269Z,18.60
2023-03-12T07:48:22.699Z,18.80
2023-03-12T07:50:50.023Z,19.00
2023-03-12T07:53:17.882Z,19.10
2023-03-12T07:55:46.820Z,19.10
2023-03-12T07:58:15.911Z,19.20
2023-03-12T08:00:43.537Z,19.20
2023-03-12T08:03:11.124Z,19.30
2023-03-12T08:05:38.931Z,19.50
2023-03-12T08:08:06.637Z,19.70
2023-03-12T08:10:33.996Z,20.00
2023-03-12T08:13:01.294Z,20.30
2023-03-12T08:15:28.710Z,20.40
2023-03-12T08:17:55.978Z,20.70
2023-03-12T08:20:23.277Z,20.80
2023-03-12T08:22:50.663Z,20.90
2023-03-12T08:25:18.767Z,20.90
2023-03-12T08:27:46.192Z,20.90
2023-03-12T08:30:14.705Z,20.90
2023-03-12T08:32:42.665Z,21.00
2023-03-12T08:35:10.620Z,20.90
2023-03-12T08:37:37.942Z,21.10
2023-03-12T08:40:13.391Z,21.20
2023-03-12T08:42:45.079Z,21.20
2023-03-12T08:45:14.543Z,21.30
2023-03-12T08:47:42.393Z,21.30
2023-03-12T08:50:12.488Z,21.40
2023-03-12T08:52:40.271Z,21.40
2023-03-12T08:55:07.885Z,21.40
2023-03-12T08:57:35.210Z,21.50
2023-03-12T09:00:05.650Z,21.50
2023-03-12T09:02:33.003Z,21.50
2023-03-12T09:05:00.290Z,21.70
2023-03-12T09:07:27.710Z,21.50
2023-03-12T09:09:55.839Z,21.70
2023-03-12T09:12:23.806Z,21.90
2023-03-12T09:15:07.738Z,21.90
2023-03-12T09:17:35.436Z,21.70
2023-03-12T09:20:07.033Z,21.60
2023-03-12T09:22:37.084Z,21.70
2023-03-12T09:25:10.288Z,21.50
2023-03-12T09:27:45.734Z,21.60
2023-03-12T09:30:18.338Z,21.50
2023-03-12T09:32:46.120Z,21.70
2023-03-12T09:35:15.260Z,21.90
2023-03-12T09:37:42.843Z,22.20
2023-03-12T09:40:19.505Z,22.30
2023-03-12T09:43:13.920Z,22.20
2023-03-12T09:45:47.254Z,22.20
2023-03-12T09:48:32.011Z,22.30
2023-03-12T09:51:09.697Z,22.40
2023-03-12T09:53:47.975Z,22.30
2023-03-12T09:56:19.263Z,22.20
2023-03-12T09:58:48.597Z,22.20
2023-03-12T10:01:43.653Z,21.80
2023-03-12T10:04:16.895Z,21.60
2023-03-12T10:06:47.312Z,21.60
2023-03-12T10:09:44.480Z,21.70
2023-03-12T10:12:23.929Z,21.70
2023-03-12T10:15:15.948Z,21.90
2023-03-12T10:18:06.443Z,22.30
2023-03-12T10:21:12.499Z,22.70
2023-03-12T10:23:51.705Z,22.80
2023-03-12T10:26:26.870Z,23.00
2023-03-12T10:29:18.837Z,23.10
2023-03-12T10:31:59.666Z,23.00
2023-03-12T10:34:37.722Z,23.00
2023-03-12T10:37:14.909Z,22.90
2023-03-12T10:39:42.298Z,22.80
2023-03-12T10:42:18.702Z,22.40
2023-03-12T10:45:13.741Z,22.30
2023-03-12T10:47:45.011Z,22.30
2023-03-12T10:50:18.633Z,22.50
2023-03-12T10:52:48.395Z,22.60
2023-03-12T10:55:21.688Z,22.60
2023-03-12T10:57:49.447Z,22.60
2023-03-12T11:00:22.883Z,22.60
2023-03-12T11:03:07.379Z,22.60
2023-03-12T11:05:45.698Z,22.10
2023-03-12T11:08:37.079Z,22.10
2023-03-12T11:11:06.122Z,21.60
2023-03-12T11:13:38.333Z,21.60
2023-03-12T11:16:18.042Z,21.50
2023-03-12T11:19:04.210Z,21.40
2023-03-12T11:21:40.172Z,21.60
2023-03-12T11:24:13.360Z,21.80
2023-03-12T11:26:52.646Z,22.30
2023-03-12T11:29:31.815Z,22.20
2023-03-12T11:32:23.576Z,22.40
2023-03-12T11:34:53.678Z,22.90
2023-03-12T11:37:36.325Z,23.00
2023-03-12T11:40:17.186Z,23.00
2023-03-12T11:43:22.137Z,22.90
2023-03-12T11:46:08.829Z,23.30
2023-03-12T11:49:07.732Z,24.00
2023-03-12T11:51:43.368Z,24.20
2023-03-12T11:54:40.519Z,24.40
2023-03-12T11:57:34.034Z,24.20
2023-03-12T12:00:17.650Z,24.30
2023-03-12T12:02:53.962Z,24.20
2023-03-12T12:05:52.587Z,23.90
2023-03-12T12:08:32.110Z,24.20
2023-03-12T12:11:08.023Z,24.50
2023-03-12T12:13:47.254Z,24.70
2023-03-12T12:16:26.412Z,24.60
2023-03-12T12:19:05.882Z,24.60
2023-03-12T12:21:37.401Z,24.60
2023-03-12T12:24:18.280Z,24.60
2023-03-12T12:27:00.362Z,24.80
2023-03-12T12:29:36.270Z,25.00
2023-03-12T12:32:09.776Z,25.20
2023-03-12T12:35:24.907Z,25.30
2023-03-12T12:38:03.394Z,25.00
2023-03-12T12:41:04.924Z,23.90
2023-03-12T12:43:37.574Z,23.20
2023-03-12T12:46:18.124Z,23.20
2023-03-12T12:48:56.110Z,23.60
2023-03-12T12:51:30.733Z,23.90
2023-03-12T12:54:16.923Z,23.40
2023-03-12T12:57:13.059Z,22.90
2023-03-12T13:00:11.173Z,23.60
2023-03-12T13:02:44.592Z,23.80
2023-03-12T13:05:37.398Z,24.10
2023-03-12T13:08:06.402Z,23.80
2023-03-12T13:10:34.405Z,23.90
2023-03-12T13:13:20.593Z,24.00
2023-03-12T13:15:48.790Z,24.30
2023-03-12T13:18:26.546Z,24.80
2023-03-12T13:20:53.942Z,25.30
2023-03-12T13:24:00.002Z,25.50
2023-03-12T13:26:51.416Z,26.10
2023-03-12T13:29:40.475Z,25.60
2023-03-12T13:32:36.679Z,25.20
2023-03-12T13:35:24.295Z,25.30
2023-03-12T13:37:52.379Z,25.60
2023-03-12T13:40:31.937Z,25.60
2023-03-12T13:43:17.504Z,25.10
2023-03-12T13:45:47.988Z,24.50
2023-03-12T13:48:18.397Z,23.90
2023-03-12T13:51:02.707Z,22.90
2023-03-12T13:53:40.709Z,22.40
2023-03-12T13:56:12.470Z,21.80
2023-03-12T13:58:57.035Z,21.40
2023-03-12T14:01:29.248Z,21.30
2023-03-12T14:04:02.078Z,21.10
2023-03-12T14:06:32.425Z,21.10
2023-03-12T14:09:11.906Z,21.00
2023-03-12T14:11:52.374Z,21.00
2023-03-12T14:14:25.760Z,21.00
2023-03-12T14:16:56.731Z,21.00
2023-03-12T14:19:33.502Z,20.70
2023-03-12T14:22:04.952Z,20.50
2023-03-12T14:24:33.730Z,20.60
2023-03-12T14:27:07.195Z,20.40
2023-03-12T14:29:48.844Z,20.50
2023-03-12T14:32:22.649Z,20.70
2023-03-12T14:35:19.292Z,20.60
2023-03-12T14:37:54.719Z,20.50
2023-03-12T14:40:46.294Z,20.10
2023-03-12T14:43:28.703Z,20.20
2023-03-12T14:46:02.152Z,20.40
2023-03-12T14:48:36.104Z,20.40
2023-03-12T14:51:05.962Z,20.50
2023-03-12T14:53:35.384Z,20.60
2023-03-12T14:56:07.077Z,20.60
2023-03-12T14:58:41.863Z,20.50
2023-03-12T15:01:14.699Z,20.50
2023-03-12T15:03:49.269Z,20.60
2023-03-12T15:06:56.649Z,20.70
2023-03-12T15:09:26.636Z,20.60
2023-03-12T15:12:07.101Z,20.20
2023-03-12T15:14:41.538Z,20.10
2023-03-12T15:17:14.876Z,20.00
2023-03-12T15:19:43.070Z,19.90
2023-03-12T15:22:21.039Z,19.90
2023-03-12T15:24:48.668Z,20.10
2023-03-12T15:27:34.475Z,20.10
2023-03-12T15:30:02.624Z,20.00
2023-03-12T15:32:32.035Z,19.90
2023-03-12T15:35:00.421Z,19.80
2023-03-12T15:37:38.407Z,19.70
2023-03-12T15:40:22.550Z,19.70
2023-03-12T15:42:50.863Z,19.70
2023-03-12T15:45:39.049Z,19.70
2023-03-12T15:48:35.784Z,19.60
2023-03-12T15:51:03.232Z,19.60
2023-03-12T15:53:34.750Z,19.50
2023-03-12T15:56:20.710Z,19.50
2023-03-12T15:58:58.727Z,19.40
2023-03-12T16:01:28.376Z,19.30
2023-03-12T16:03:55.884Z,19.20
2023-03-12T16:06:26.169Z,19.20
2023-03-12T16:08:59.969Z,19.20
2023-03-12T16:11:31.102Z,19.10
2023-03-12T16:14:13.827Z,19.00
2023-03-12T16:16:41.400Z,18.90
2023-03-12T16:19:16.682Z,18.90
2023-03-12T16:21:44.768Z,18.90
2023-03-12T16:24:12.520Z,18.80
2023-03-12T16:26:50.464Z,18.70
2023-03-12T16:29:19.810Z,18.70
2023-03-12T16:31:54.588Z,18.70
2023-03-12T16:34:22.298Z,18.70
2023-03-12T16:36:49.660Z,18.70
2023-03-12T16:39:18.815Z,18.70
2023-03-12T16:41:47.363Z,18.60
2023-03-12T16:44:19.151Z,18.50
2023-03-12T16:46:46.775Z,18.40
2023-03-12T16:49:16.472Z,18.40
2023-03-12T16:51:44.039Z,18.30
2023-03-12T16:54:12.302Z,18.20
2023-03-12T16:56:44.250Z,18.10
2023-03-12T16:59:26.893Z,17.90
2023-03-12T17:01:54.535Z,17.80
2023-03-12T17:04:21.894Z,17.60
2023-03-12T17:06:49.289Z,17.50
2023-03-12T17:09:16.597Z,17.40
2023-03-12T17:11:43.927Z,17.40
2023-03-12T17:14:22.592Z,17.40
2023-03-12T17:16:50.319Z,17.30
2023-03-12T17:19:17.965Z,17.00
2023-03-12T17:21:45.593Z,16.70
2023-03-12T17:24:16.765Z,16.40
2023-03-12T17:26:45.665Z,16.20
2023-03-12T17:29:13.001Z,16.10
2023-03-12T17:31:40.469Z,15.90
2023-03-12T17:34:08.654Z,15.90
2023-03-12T17:36:40.626Z,15.90
2023-03-12T17:39:09.788Z,15.90
2023-03-12T17:41:37.064Z,15.90
2023-03-12T17:44:04.420Z,15.80
2023-03-12T17:46:32.422Z,15.80
2023-03-12T17:49:00.173Z,15.60
2023-03-12T17:51:27.531Z,15.50
2023-03-12T17:53:55.206Z,15.50
2023-03-12T17:56:22.992Z,15.40
2023-03-12T17:58:50.476Z,15.30
2023-03-12T18:01:21.135Z,15.30
2023-03-12T18:03:50.285Z,15.20
2023-03-12T18:06:19.780Z,15.20
2023-03-12T18:08:47.418Z,15.10
2023-03-12T18:11:14.777Z,15.10
2023-03-12T18:13:42.233Z,15.10
2023-03-12T18:16:10.058Z,15.10
2023-03-12T18:18:37.474Z,15.10
2023-03-12T18:21:08.708Z,15.20
2023-03-12T18:23:38.956Z,15.20
2023-03-12T18:26:06.428Z,15.30
2023-03-12T18:28:33.946Z,15.30
2023-03-12T18:31:01.426Z,15.30
2023-03-12T18:33:29.046Z,15.30
2023-03-12T18:35:56.574Z,15.30
2023-03-12T18:38:24.191Z,15.30
2023-03-12T18:40:51.599Z,15.30
2023-03-12T18:43:22.075Z,15.30
2023-03-12T18:45:50.592Z,15.40
2023-03-12T18:48:18.195Z,15.30
2023-03-12T18:50:45.654Z,15.30
2023-03-12T18:53:12.971Z,15.20
2023-03-12T18:55:40.393Z,15.20
2023-03-12T18:58:07.873Z,15.20
2023-03-12T19:00:35.114Z,15.20
2023-03-12T19:03:02.547Z,15.10
2023-03-12T19:05:30.047Z,15.10
2023-03-12T19:07:57.359Z,15.10
2023-03-12T19:10:24.892Z,15.10
2023-03-12T19:12:54.027Z,15.10
2023-03-12T19:15:24.430Z,15.10
2023-03-12T19:17:52.865Z,15.10
2023-03-12T19:20:21.654Z,15.10
2023-03-12T19:22:49.712Z,15.10
2023-03-12T19:25:17.206Z,15.10
2023-03-12T19:27:44.583Z,15.10
2023-03-12T19:30:13.999Z,15.00
2023-03-12T19:32:44.077Z,15.00
2023-03-12T19:35:13.725Z,15.00
2023-03-12T19:37:42.037Z,15.00
2023-03-12T19:40:11.362Z,15.00
2023-03-12T19:42:38.640Z,15.00
2023-03-12T19:45:06.640Z,14.90
2023-03-12T19:47:33.974Z,14.80
2023-03-12T19:50:01.946Z,14.80
2023-03-12T19:52:29.681Z,14.80
2023-03-12T19:55:06.359Z,14.80
2023-03-12T19:57:34.593Z,14.70
2023-03-12T20:00:02.218Z,14.70
2023-03-12T20:02:31.735Z,14.70
2023-03-12T20:04:59.192Z,14.70
2023-03-12T20:07:26.593Z,14.70
2023-03-12T20:09:56.960Z,14.70
2023-03-12T20:12:24.679Z,14.60
2023-03-12T20:14:52.001Z,14.60
2023-03-12T20:17:19.483Z,14.60
2023-03-12T20:19:46.879Z,14.60
2023-03-12T20:22:14.737Z,14.50
2023-03-12T20:24:42.037Z,14.50
2023-03-12T20:27:09.557Z,14.50
2023-03-12T20:29:37.209Z,14.50
2023-03-12T20:32:05.837Z,14.40
2023-03-12T20:34:33.144Z,14.50
2023-03-12T20:37:00.514Z,14.50
2023-03-12T20:39:27.959Z,14.50
2023-03-12T20:41:55.420Z,14.50
2023-03-12T20:44:23.055Z,14.50
2023-03-12T20:46:50.494Z,14.50
2023-03-12T20:49:18.008Z,14.50
2023-03-12T20:51:46.178Z,14.60
2023-03-12T20:54:13.637Z,14.60
2023-03-12T20:56:43.858Z,14.60
2023-03-12T20:59:12.595Z,14.70
2023-03-12T21:01:40.078Z,14.70
2023-03-12T21:04:07.364Z,14.60
2023-03-12T21:06:34.739Z,14.60
2023-03-12T21:09:02.533Z,14.50
2023-03-12T21:11:31.488Z,14.50
2023-03-12T21:13:58.937Z,14.50
2023-03-12T21:16:26.361Z,14.50
2023-03-12T21:18:58.101Z,14.40
2023-03-12T21:21:25.665Z,14.40
2023-03-12T21:23:53.024Z,14.40
2023-03-12T21:26:20.666Z,14.40
2023-03-12T21:28:47.973Z,14.40
2023-03-12T21:31:17.401Z,14.30
2023-03-12T21:33:44.775Z,14.30
2023-03-12T21:36:14.429Z,14.40
2023-03-12T21:38:43.259Z,14.40
2023-03-12T21:41:13.421Z,14.30
2023-03-12T21:43:41.183Z,14.30
2023-03-12T21:46:11.601Z,14.30
2023-03-12T21:48:39.886Z,14.30
2023-03-12T21:51:11.731Z,14.30
2023-03-12T21:53:39.450Z,14.30
2023-03-12T21:56:09.137Z,14.20
2023-03-12T21:58:36.798Z,14.20
2023-03-12T22:01:09.071Z,14.20
2023-03-12T22:03:37.099Z,14.20
2023-03-12T22:06:05.425Z,14.10
2023-03-12T22:08:34.270Z,14.10
2023-03-12T22:11:02.477Z,14.10
2023-03-12T22:13:30.062Z,14.10
2023-03-12T22:15:59.831Z,14.10
2023-03-12T22:18:28.828Z,14.10
2023-03-12T22:21:01.820Z,14.10
2023-03-12T22:23:29.332Z,14.10
2023-03-12T22:26:01.056Z,14.10
2023-03-12T22:28:28.459Z,14.10
2023-03-12T22:31:04.738Z,14.00
2023-03-12T22:33:32.942Z,14.00
2023-03-12T22:36:00.243Z,14.00
2023-03-12T22:38:27.657Z,14.00
2023-03-12T22:40:55.920Z,14.00
2023-03-12T22:43:25.847Z,14.10
2023-03-12T22:45:54.367Z,14.10
2023-03-12T22:48:21.644Z,14.10
2023-03-12T22:50:58.104Z,14.00
2023-03-12T22:53:25.538Z,14.00
2023-03-12T22:55:59.933Z,13.90
2023-03-12T22:58:28.036Z,13.90
2023-03-12T23:01:06.212Z,14.00
2023-03-12T23:03:35.647Z,13.90
2023-03-12T23:06:03.992Z,13.90
2023-03-12T23:08:31.396Z,13.90
2023-03-12T23:11:01.390Z,13.90
2023-03-12T23:13:30.087Z,13.90
2023-03-12T23:16:09.695Z,13.90
2023-03-12T23:18:37.403Z,13.90
2023-03-12T23:21:08.053Z,14.00
2023-03-12T23:23:37.655Z,13.90
2023-03-12T23:26:05.457Z,13.90
2023-03-12T23:28:33.227Z,13.90
2023-03-12T23:31:06.636Z,13.90
2023-03-12T23:33:35.673Z,13.90
2023-03-12T23:36:05.764Z,13.90
2023-03-12T23:38:35.768Z,13.90
2023-03-12T23:41:12.020Z,13.90
2023-03-12T23:43:39.557Z,13.90
2023-03-12T23:46:08.577Z,13.80
2023-03-12T23:48:37.325Z,13.80
2023-03-12T23:51:13.933Z,13.80
2023-03-12T23:53:43.089Z,13.80
2023-03-12T23:56:13.604Z,13.70
2023-03-12T23:58:41.179Z,13.60
